Time;durP1;ratioP1;P1;durP2;ratioP2;P2;SDS_P1;SDS_P2;PMS_P1;PMS_P2;Temp;Humidity;BMP_temperature;BMP_pressure;BME280_temperature;BME280_humidity;BME280_pressure;Samples;Min_cycle;Max_cycle;Signal;HPM_P1;HPM_P2
2021/03/13 00:01:00;;;;;;;;;;;6.00;99.90;;;;;;4988582;28;20061;-84
2021/03/13 00:03:26;;;;;;;;;;;6.00;99.90;;;;;;4987829;28;20448;-84
2021/03/13 00:05:53;;;;;;;0.00;0.00;;;6.00;99.90;;;;;;4986998;28;19996;-84
2021/03/13 00:08:20;;;;;;;0.25;0.25;;;6.00;99.90;;;;;;4987125;28;20406;-84
2021/03/13 00:10:47;;;;;;;0.00;0.00;;;6.00;99.90;;;;;;4988307;28;20034;-83
2021/03/13 00:13:16;;;;;;;1.10;0.93;;;5.90;99.90;;;;;;4986847;28;20039;-83
2021/03/13 00:15:45;;;;;;;0.00;0.00;;;6.00;99.90;;;;;;4988228;28;20065;-84
2021/03/13 00:18:12;;;;;;;0.00;0.00;;;5.90;99.90;;;;;;4988349;28;20062;-83
2021/03/13 00:20:41;;;;;;;0.95;0.43;;;6.00;99.90;;;;;;4988252;28;20077;-83
2021/03/13 00:23:08;;;;;;;0.10;0.10;;;6.00;99.90;;;;;;4987000;28;20508;-83
2021/03/13 00:25:36;;;;;;;;;;;6.10;99.90;;;;;;4989819;28;20022;-83
2021/03/13 00:28:03;;;;;;;0.03;0.03;;;6.10;99.90;;;;;;4988016;28;19913;-84
2021/03/13 00:30:41;;;;;;;0.30;0.30;;;6.10;99.90;;;;;;4982696;28;20039;-84
2021/03/13 00:33:16;;;;;;;0.05;0.05;;;6.10;99.90;;;;;;4986564;28;20034;-83
2021/03/13 00:35:44;;;;;;;0.05;0.05;;;6.00;99.90;;;;;;4989199;28;20720;-83
2021/03/13 00:38:12;;;;;;;0.00;0.00;;;6.00;99.90;;;;;;4987072;28;20429;-84
2021/03/13 00:40:40;;;;;;;0.20;0.20;;;5.90;99.90;;;;;;4984485;28;20158;-84
2021/03/13 00:43:08;;;;;;;2.53;0.90;;;6.20;99.90;;;;;;4989413;28;20022;-84
2021/03/13 00:45:35;;;;;;;0.30;0.25;;;6.30;99.90;;;;;;4987232;28;20026;-83
2021/03/13 00:48:04;;;;;;;17.20;1.08;;;6.40;99.90;;;;;;4984543;28;20061;-83
2021/03/13 00:50:32;;;;;;;0.20;0.20;;;6.50;99.90;;;;;;4987367;28;20042;-83
2021/03/13 00:52:58;;;;;;;0.00;0.00;;;6.50;99.90;;;;;;4987076;28;21432;-83
2021/03/13 00:55:25;;;;;;;0.10;0.10;;;6.60;99.90;;;;;;4984171;28;20034;-83
2021/03/13 00:57:52;;;;;;;0.00;0.00;;;6.60;99.90;;;;;;4988520;28;20133;-83
2021/03/13 01:00:22;;;;;;;0.00;0.00;;;6.50;99.90;;;;;;4986991;28;20030;-83
2021/03/13 01:02:48;;;;;;;0.00;0.00;;;6.50;99.90;;;;;;4987574;28;20022;-83
2021/03/13 01:05:16;;;;;;;0.00;0.00;;;6.60;99.90;;;;;;4987156;28;20050;-83
2021/03/13 01:07:45;;;;;;;0.08;0.08;;;6.50;99.90;;;;;;4988255;28;20026;-83
2021/03/13 01:10:17;;;;;;;0.10;0.10;;;6.50;99.90;;;;;;4991521;28;20030;-83
2021/03/13 01:12:46;;;;;;;0.10;0.10;;;6.50;99.90;;;;;;4991315;28;20046;-83
2021/03/13 01:15:17;;;;;;;0.63;0.63;;;6.50;99.90;;;;;;4990472;28;20461;-83
2021/03/13 01:17:45;;;;;;;1.17;0.88;;;6.60;99.90;;;;;;4990763;28;20027;-83
2021/03/13 01:20:15;;;;;;;0.32;0.32;;;6.70;99.90;;;;;;4990587;28;20030;-83
2021/03/13 01:22:49;;;;;;;0.00;0.00;;;6.70;99.90;;;;;;4991362;28;20278;-83
2021/03/13 01:25:17;;;;;;;0.00;0.00;;;6.60;99.90;;;;;;4990193;28;20290;-83
2021/03/13 01:27:46;;;;;;;0.25;0.25;;;6.70;99.90;;;;;;4989100;28;20034;-84
2021/03/13 01:30:16;;;;;;;4.97;0.73;;;6.70;99.90;;;;;;4989424;28;20713;-84
2021/03/13 01:32:44;;;;;;;0.10;0.10;;;6.70;99.90;;;;;;4988113;28;20058;-84
2021/03/13 01:35:14;;;;;;;0.75;0.50;;;6.70;99.90;;;;;;4990074;28;20023;-84
2021/03/13 01:37:41;;;;;;;;;;;6.60;99.90;;;;;;4990885;28;20026;-84
2021/03/13 01:40:15;;;;;;;0.32;0.32;;;6.60;99.90;;;;;;4987781;28;20016;-84
2021/03/13 01:42:47;;;;;;;0.10;0.10;;;6.60;99.90;;;;;;4986287;28;20038;-84
2021/03/13 01:45:17;;;;;;;1.98;0.93;;;6.70;99.90;;;;;;4990776;28;20023;-84
2021/03/13 01:47:48;;;;;;;0.63;0.63;;;6.70;99.90;;;;;;4990730;28;20440;-84
2021/03/13 01:50:17;;;;;;;0.40;0.40;;;6.70;99.90;;;;;;4990072;28;20650;-83
2021/03/13 01:52:48;;;;;;;0.10;0.10;;;6.70;99.90;;;;;;4985774;28;20766;-83
2021/03/13 01:55:21;;;;;;;0.63;0.63;;;6.60;99.90;;;;;;4989755;28;20430;-83
2021/03/13 01:57:49;;;;;;;0.43;0.38;;;6.60;99.90;;;;;;4989931;28;20450;-83
2021/03/13 02:00:21;;;;;;;1.65;1.10;;;6.60;99.90;;;;;;4990687;28;20030;-82
2021/03/13 02:02:48;;;;;;;0.10;0.10;;;6.60;99.90;;;;;;4984032;28;20073;-83
2021/03/13 02:05:36;;;;;;;0.93;0.30;;;6.60;99.90;;;;;;4991195;28;20089;-83
2021/03/13 02:08:29;;;;;;;0.73;0.73;;;6.50;99.90;;;;;;4987792;28;20036;-83
2021/03/13 02:11:18;;;;;;;0.00;0.00;;;6.30;99.90;;;;;;4985649;28;20042;-83
2021/03/13 02:13:58;;;;;;;0.10;0.10;;;6.50;99.90;;;;;;4983730;28;20415;-83
2021/03/13 02:16:48;;;;;;;0.65;0.43;;;6.60;99.90;;;;;;4987518;28;20117;-83
2021/03/13 02:19:49;;;;;;;0.35;0.35;;;6.70;99.90;;;;;;4989519;28;20057;-82
2021/03/13 02:22:21;;;;;;;0.25;0.25;;;6.70;99.90;;;;;;4986413;28;20120;-83
2021/03/13 02:25:25;;;;;;;0.05;0.05;;;6.70;99.90;;;;;;4990605;28;20030;-82
2021/03/13 02:28:16;;;;;;;0.13;0.13;;;6.60;99.90;;;;;;4985813;28;20029;-82
2021/03/13 02:30:49;;;;;;;0.22;0.22;;;6.60;99.90;;;;;;4989846;28;20042;-82
2021/03/13 02:33:47;;;;;;;0.00;0.00;;;6.60;99.90;;;;;;4989772;28;20113;-83
2021/03/13 02:36:19;;;;;;;0.10;0.10;;;6.60;99.90;;;;;;4987013;28;20462;-82
2021/03/13 02:39:02;;;;;;;4.10;1.58;;;6.50;99.90;;;;;;4987097;28;20030;-83
2021/03/13 02:41:35;;;;;;;7.45;0.57;;;6.50;99.90;;;;;;4986619;28;20030;-83
2021/03/13 02:44:04;;;;;;;0.40;0.40;;;6.60;99.90;;;;;;4989245;28;20015;-82
2021/03/13 02:46:33;;;;;;;2.55;1.17;;;6.60;99.90;;;;;;4989346;28;20130;-82
2021/03/13 02:49:01;;;;;;;0.90;0.90;;;6.60;99.90;;;;;;4990399;28;20026;-82
2021/03/13 02:51:29;;;;;;;1.13;1.10;;;6.60;99.90;;;;;;4990274;28;20060;-82
2021/03/13 02:53:57;;;;;;;0.75;0.70;;;6.60;99.90;;;;;;4987959;28;20037;-83
2021/03/13 02:56:25;;;;;;;0.00;0.00;;;6.60;99.90;;;;;;4989458;28;20026;-83
2021/03/13 02:58:55;;;;;;;0.10;0.10;;;6.70;99.90;;;;;;4989464;28;20027;-84
2021/03/13 03:01:26;;;;;;;0.10;0.10;;;6.70;99.90;;;;;;4986405;28;20026;-83
2021/03/13 03:03:54;;;;;;;0.30;0.30;;;6.70;99.90;;;;;;4980413;28;20077;-83
2021/03/13 03:06:22;;;;;;;0.00;0.00;;;6.70;99.90;;;;;;4983802;28;20022;-84
2021/03/13 03:08:49;;;;;;;0.10;0.10;;;6.70;99.90;;;;;;4986736;28;20030;-84
2021/03/13 03:11:21;;;;;;;0.22;0.22;;;6.70;99.90;;;;;;4988147;28;20022;-84
2021/03/13 03:13:49;;;;;;;0.00;0.00;;;6.70;99.90;;;;;;4985537;28;20130;-84
2021/03/13 03:16:17;;;;;;;0.10;0.10;;;6.80;99.90;;;;;;4981059;28;20097;-84
2021/03/13 03:18:45;;;;;;;0.40;0.25;;;6.70;99.90;;;;;;4989048;28;20498;-84
2021/03/13 03:21:13;;;;;;;0.00;0.00;;;6.70;99.90;;;;;;4987055;28;20022;-84
2021/03/13 03:23:41;;;;;;;0.10;0.10;;;6.70;99.90;;;;;;4986069;28;20023;-84
2021/03/13 03:26:07;;;;;;;0.05;0.05;;;6.50;99.90;;;;;;4987619;28;20385;-84
2021/03/13 03:28:34;;;;;;;0.17;0.17;;;6.50;99.90;;;;;;4987389;28;20034;-83
2021/03/13 03:31:00;;;;;;;1.42;1.35;;;6.60;99.90;;;;;;4986435;28;20048;-83
2021/03/13 03:33:27;;;;;;;0.00;0.00;;;6.60;99.90;;;;;;4988843;28;20767;-83
2021/03/13 03:35:53;;;;;;;0.10;0.10;;;6.70;99.90;;;;;;4986646;28;20057;-83
2021/03/13 03:38:21;;;;;;;0.00;0.00;;;6.60;99.90;;;;;;4988536;28;20026;-83
2021/03/13 03:40:48;;;;;;;0.03;0.03;;;6.50;99.90;;;;;;4988346;28;20038;-83
2021/03/13 03:43:31;;;;;;;0.17;0.17;;;6.60;99.90;;;;;;4987743;28;20581;-83
2021/03/13 03:46:03;;;;;;;0.00;0.00;;;6.50;99.90;;;;;;4983226;28;20030;-83
2021/03/13 03:48:35;;;;;;;0.75;0.75;;;6.30;99.90;;;;;;4988781;28;20113;-83
2021/03/13 03:51:09;;;;;;;0.10;0.10;;;6.10;99.90;;;;;;4976690;28;20026;-83
2021/03/13 03:53:40;;;;;;;1.08;0.50;;;6.00;99.90;;;;;;4988616;28;20127;-83
2021/03/13 03:56:08;;;;;;;0.10;0.10;;;6.00;99.90;;;;;;4988575;28;20030;-83
2021/03/13 03:58:45;;;;;;;0.28;0.28;;;5.90;99.90;;;;;;4987216;28;20030;-83
2021/03/13 04:01:14;;;;;;;0.00;0.00;;;5.70;99.90;;;;;;4976432;28;20022;-83
2021/03/13 04:03:49;;;;;;;0.10;0.10;;;5.70;99.90;;;;;;4987994;28;20089;-84
2021/03/13 04:06:16;;;;;;;0.10;0.10;;;5.60;99.90;;;;;;4985365;28;20438;-84
2021/03/13 04:08:44;;;;;;;;;;;5.60;99.90;;;;;;4988307;28;20454;-83
2021/03/13 04:11:17;;;;;;;0.20;0.20;;;5.60;99.90;;;;;;4978420;28;19916;-83
2021/03/13 04:13:44;;;;;;;0.45;0.45;;;5.90;99.90;;;;;;4988071;28;20752;-83
2021/03/13 04:16:14;;;;;;;0.28;0.28;;;6.00;99.90;;;;;;4987787;28;20054;-83
2021/03/13 04:18:41;;;;;;;0.15;0.15;;;6.10;99.90;;;;;;4986117;28;20034;-83
2021/03/13 04:21:09;;;;;;;0.10;0.10;;;6.20;99.90;;;;;;4987490;28;20406;-84
2021/03/13 04:23:38;;;;;;;0.10;0.10;;;6.20;99.90;;;;;;4986089;28;20618;-84
2021/03/13 04:26:06;;;;;;;0.05;0.05;;;6.30;99.90;;;;;;4988725;28;20691;-84
2021/03/13 04:28:33;;;;;;;8.38;1.40;;;6.40;99.90;;;;;;4987406;28;20479;-84
2021/03/13 04:31:01;;;;;;;;;;;6.50;99.90;;;;;;4988546;28;20030;-83
2021/03/13 04:33:28;;;;;;;0.10;0.10;;;6.40;99.90;;;;;;4988617;28;20425;-83
2021/03/13 04:35:55;;;;;;;14.00;0.47;;;6.40;99.90;;;;;;4986903;28;20030;-83
2021/03/13 04:38:22;;;;;;;;;;;6.40;99.90;;;;;;4987168;28;20062;-83
2021/03/13 04:40:50;;;;;;;;;;;6.40;99.90;;;;;;4986350;28;20436;-83
2021/03/13 04:43:18;;;;;;;1.45;0.38;;;6.30;99.90;;;;;;4985207;28;19917;-83
2021/03/13 04:45:45;;;;;;;0.10;0.10;;;6.30;99.90;;;;;;4982951;28;20026;-83
2021/03/13 04:48:12;;;;;;;;;;;6.40;99.90;;;;;;4991602;28;20018;-83
2021/03/13 04:50:39;;;;;;;;;;;6.30;99.90;;;;;;4992387;28;20447;-84
2021/03/13 04:53:07;;;;;;;0.10;0.10;;;6.30;99.90;;;;;;4990906;28;19928;-84
2021/03/13 04:55:33;;;;;;;0.10;0.10;;;6.50;99.90;;;;;;4991009;28;20477;-84
2021/03/13 04:58:00;;;;;;;0.60;0.60;;;6.50;99.90;;;;;;4990151;28;20030;-83
2021/03/13 05:00:27;;;;;;;0.20;0.20;;;6.50;99.90;;;;;;4991209;28;20042;-83
2021/03/13 05:02:53;;;;;;;0.00;0.00;;;6.50;99.90;;;;;;4991510;28;20125;-83
2021/03/13 05:05:20;;;;;;;0.17;0.17;;;6.50;99.90;;;;;;4990099;28;20096;-83
2021/03/13 05:07:46;;;;;;;0.52;0.30;;;6.50;99.90;;;;;;4991150;28;20041;-83
2021/03/13 05:10:13;;;;;;;0.00;0.00;;;6.50;99.90;;;;;;4991444;28;20045;-84
2021/03/13 05:12:40;;;;;;;0.03;0.03;;;6.60;99.90;;;;;;4988106;28;20576;-83
2021/03/13 05:15:08;;;;;;;1.25;1.15;;;6.50;99.90;;;;;;4991275;28;20215;-83
2021/03/13 05:17:35;;;;;;;0.20;0.20;;;6.40;99.90;;;;;;4991087;28;20018;-83
2021/03/13 05:20:04;;;;;;;0.10;0.10;;;6.40;99.90;;;;;;4989750;28;20092;-83
2021/03/13 05:22:30;;;;;;;0.10;0.10;;;6.50;99.90;;;;;;4988491;28;20023;-83
2021/03/13 05:24:57;;;;;;;0.20;0.20;;;6.60;99.90;;;;;;4982608;28;20026;-83
2021/03/13 05:27:23;;;;;;;0.22;0.22;;;6.60;99.90;;;;;;4986141;28;20037;-83
2021/03/13 05:29:50;;;;;;;0.00;0.00;;;6.60;99.90;;;;;;4990239;28;20069;-83
2021/03/13 05:32:16;;;;;;;;;;;6.50;99.90;;;;;;4990425;28;20023;-83
2021/03/13 05:34:43;;;;;;;0.63;0.63;;;6.30;99.90;;;;;;4989786;28;19906;-83
2021/03/13 05:37:09;;;;;;;0.10;0.10;;;6.10;99.90;;;;;;4990102;28;20499;-83
2021/03/13 05:39:36;;;;;;;0.10;0.10;;;6.10;99.90;;;;;;4990998;28;20033;-83
2021/03/13 05:42:03;;;;;;;0.00;0.00;;;6.20;99.90;;;;;;4992053;28;20057;-87
2021/03/13 05:44:32;;;;;;;0.20;0.20;;;6.30;99.90;;;;;;4991089;28;20061;-88
2021/03/13 05:46:59;;;;;;;0.80;0.80;;;6.20;99.90;;;;;;4988270;28;20038;-88
2021/03/13 05:49:28;;;;;;;1.17;0.63;;;6.20;99.90;;;;;;4990597;28;20512;-87
2021/03/13 05:51:56;;;;;;;0.10;0.10;;;6.20;99.90;;;;;;4989092;28;20037;-87
2021/03/13 05:54:22;;;;;;;0.10;0.10;;;6.10;99.90;;;;;;4988167;28;20026;-88
2021/03/13 05:56:49;;;;;;;0.03;0.03;;;6.00;99.90;;;;;;4981639;28;20035;-88
2021/03/13 05:59:16;;;;;;;0.08;0.08;;;6.00;99.90;;;;;;4988876;28;20441;-89
2021/03/13 06:01:44;;;;;;;0.10;0.10;;;5.90;99.90;;;;;;4989208;28;20038;-88
2021/03/13 06:04:10;;;;;;;1.95;1.48;;;6.20;99.90;;;;;;4989350;28;20419;-87
2021/03/13 06:06:40;;;;;;;0.00;0.00;;;6.30;99.90;;;;;;4989691;28;20037;-87
2021/03/13 06:09:09;;;;;;;0.20;0.20;;;6.30;99.90;;;;;;4981628;28;20034;-89
2021/03/13 06:11:36;;;;;;;2.00;0.70;;;6.30;99.90;;;;;;4989351;28;20031;-87
2021/03/13 06:14:02;;;;;;;;;;;6.40;99.90;;;;;;4990078;28;20127;-87
2021/03/13 06:16:32;;;;;;;0.33;0.33;;;6.50;99.90;;;;;;4991055;28;20002;-86
2021/03/13 06:18:59;;;;;;;0.55;0.55;;;6.50;99.90;;;;;;4982107;28;20033;-87
2021/03/13 06:21:40;;;;;;;0.00;0.00;;;6.40;99.90;;;;;;4990861;28;20030;-86
2021/03/13 06:24:18;;;;;;;0.10;0.10;;;6.50;99.90;;;;;;4989615;28;20027;-87
2021/03/13 06:26:55;;;;;;;0.43;0.38;;;6.50;99.90;;;;;;4991600;28;20023;-86
2021/03/13 06:29:23;;;;;;;0.00;0.00;;;6.60;99.90;;;;;;4989882;28;20027;-87
2021/03/13 06:32:11;;;;;;;0.10;0.10;;;6.70;99.90;;;;;;4990733;28;20033;-86
2021/03/13 06:34:39;;;;;;;0.15;0.15;;;6.80;99.90;;;;;;4990256;28;20077;-86
2021/03/13 06:37:29;;;;;;;0.00;0.00;;;6.80;99.90;;;;;;4990615;28;20022;-86
2021/03/13 06:39:57;;;;;;;0.20;0.20;;;6.80;99.90;;;;;;4984613;28;20034;-87
2021/03/13 06:42:26;;;;;;;0.10;0.10;;;6.70;99.90;;;;;;4980508;28;20761;-86
2021/03/13 06:45:12;;;;;;;1.23;0.20;;;6.80;99.90;;;;;;4989915;28;20034;-86
2021/03/13 06:47:40;;;;;;;0.15;0.15;;;6.90;99.90;;;;;;4990187;28;20041;-86
2021/03/13 06:50:18;;;;;;;0.10;0.10;;;6.80;99.90;;;;;;4983807;28;20525;-86
2021/03/13 06:52:50;;;;;;;0.10;0.10;;;7.00;99.90;;;;;;4984447;28;20114;-86
2021/03/13 06:55:22;;;;;;;0.32;0.32;;;7.20;99.90;;;;;;4990110;28;20054;-86
2021/03/13 06:57:50;;;;;;;0.35;0.35;;;7.20;99.90;;;;;;4983328;28;20428;-86
2021/03/13 07:00:33;;;;;;;0.47;0.47;;;7.30;99.90;;;;;;4985068;28;20030;-87
2021/03/13 07:03:13;;;;;;;1.35;0.95;;;7.40;99.90;;;;;;4978136;28;20685;-87
2021/03/13 07:05:44;;;;;;;0.52;0.52;;;7.40;99.90;;;;;;4988765;28;20084;-87
2021/03/13 07:08:35;;;;;;;0.00;0.00;;;7.50;99.90;;;;;;4988033;28;20418;-88
2021/03/13 07:11:08;;;;;;;0.20;0.20;;;7.80;99.90;;;;;;4987987;28;20025;-87
2021/03/13 07:14:08;;;;;;;0.00;0.00;;;8.90;99.90;;;;;;4988802;28;20042;-88
2021/03/13 07:16:35;;;;;;;0.10;0.10;;;9.60;99.90;;;;;;4926454;29;20583;-87
2021/03/13 07:19:09;;;;;;;3.42;1.15;;;8.80;99.90;;;;;;4925176;29;20031;-89
2021/03/13 07:21:36;;;;;;;0.00;0.00;;;8.40;99.90;;;;;;4916857;29;20107;-88
2021/03/13 07:24:10;;;;;;;0.20;0.20;;;8.50;99.90;;;;;;4922350;29;20032;-89
2021/03/13 07:26:47;;;;;;;0.10;0.10;;;9.40;99.90;;;;;;4918873;29;20052;-90
2021/03/13 07:29:18;;;;;;;0.43;0.43;;;10.20;99.90;;;;;;4923649;29;20047;-90
2021/03/13 07:32:02;;;;;;;0.10;0.10;;;9.50;99.90;;;;;;4922288;29;20028;-90
2021/03/13 07:34:35;;;;;;;0.55;0.38;;;8.90;99.90;;;;;;4925740;29;20400;-91
2021/03/13 07:37:03;;;;;;;0.10;0.10;;;8.90;99.90;;;;;;4919975;29;20047;-90
2021/03/13 07:39:34;;;;;;;1.35;1.25;;;8.40;99.90;;;;;;4918796;29;20050;-90
2021/03/13 07:42:15;;;;;;;0.00;0.00;;;8.20;99.90;;;;;;4917772;29;20066;-90
2021/03/13 07:44:41;;;;;;;0.00;0.00;;;8.10;99.90;;;;;;4919983;29;20036;-89
2021/03/13 07:47:10;;;;;;;0.00;0.00;;;8.10;99.90;;;;;;4920588;29;20083;-90
2021/03/13 07:49:37;;;;;;;0.05;0.05;;;7.90;99.90;;;;;;4920063;29;20066;-90
2021/03/13 07:52:07;;;;;;;0.47;0.47;;;7.90;99.90;;;;;;4949331;28;20665;-90
2021/03/13 07:54:40;;;;;;;0.00;0.00;;;8.00;99.90;;;;;;4988029;28;20026;-90
2021/03/13 07:57:07;;;;;;;0.00;0.00;;;8.50;99.90;;;;;;4985679;28;20026;-90
2021/03/13 07:59:50;;;;;;;0.28;0.28;;;8.70;99.90;;;;;;4985553;28;20037;-89
2021/03/13 08:02:30;;;;;;;1.38;0.95;;;8.70;99.90;;;;;;4985198;28;20390;-90
2021/03/13 08:04:58;;;;;;;0.70;0.70;;;9.40;99.90;;;;;;4987804;28;20038;-90
2021/03/13 08:07:28;;;;;;;1.45;0.68;;;9.10;99.90;;;;;;4981434;28;20029;-90
2021/03/13 08:09:55;;;;;;;0.32;0.32;;;8.90;99.90;;;;;;4983417;28;20030;-90
2021/03/13 08:12:39;;;;;;;0.10;0.10;;;8.20;99.90;;;;;;4981181;28;20463;-89
2021/03/13 08:15:29;;;;;;;0.52;0.52;;;8.20;99.90;;;;;;4976450;28;20523;-90
2021/03/13 08:17:55;;;;;;;1.55;0.50;;;8.10;99.90;;;;;;4974296;28;20043;-90
2021/03/13 08:20:32;;;;;;;0.10;0.10;;;8.20;99.90;;;;;;4988628;28;20069;-90
2021/03/13 08:23:18;;;;;;;1.00;0.75;;;8.40;99.90;;;;;;4985486;28;20884;-89
2021/03/13 08:25:58;;;;;;;0.47;0.47;;;8.10;99.90;;;;;;4983805;28;20498;-89
2021/03/13 08:28:45;;;;;;;0.10;0.10;;;8.30;99.90;;;;;;4989580;28;20030;-89
2021/03/13 08:31:24;;;;;;;0.00;0.00;;;8.30;99.90;;;;;;4986230;28;20026;-89
2021/03/13 08:34:20;;;;;;;0.80;0.80;;;8.60;99.90;;;;;;4980744;28;20038;-90
2021/03/13 08:36:51;;;;;;;0.10;0.10;;;8.80;99.90;;;;;;4981844;28;20041;-89
2021/03/13 08:39:34;;;;;;;0.03;0.03;;;9.10;99.90;;;;;;4982522;28;20048;-89
2021/03/13 08:42:01;;;;;;;1.65;1.05;;;9.00;99.90;;;;;;4981444;28;20526;-90
2021/03/13 08:44:31;;;;;;;0.10;0.10;;;9.30;99.90;;;;;;4981021;28;20042;-89
2021/03/13 08:47:11;;;;;;;0.10;0.10;;;9.50;99.90;;;;;;4980114;28;20411;-90
2021/03/13 08:49:45;;;;;;;0.20;0.20;;;9.40;99.90;;;;;;4982053;28;20041;-89
2021/03/13 08:52:11;;;;;;;0.00;0.00;;;9.30;99.90;;;;;;4979681;28;20065;-89
2021/03/13 08:54:47;;;;;;;0.10;0.10;;;9.10;99.90;;;;;;4986650;28;20764;-90
2021/03/13 08:57:25;;;;;;;0.00;0.00;;;9.20;99.90;;;;;;4984336;28;20019;-89
2021/03/13 08:59:54;;;;;;;3.38;2.05;;;9.10;99.90;;;;;;4987860;28;20084;-89
2021/03/13 09:02:21;;;;;;;0.10;0.10;;;9.00;99.90;;;;;;4977714;28;20517;-89
2021/03/13 09:04:55;;;;;;;0.52;0.52;;;9.10;99.90;;;;;;4977533;28;20062;-89
2021/03/13 09:07:22;;;;;;;2.60;0.73;;;9.00;99.90;;;;;;4980232;28;20025;-89
2021/03/13 09:09:48;;;;;;;0.03;0.03;;;9.00;99.90;;;;;;4985664;28;20026;-90
2021/03/13 09:12:17;;;;;;;0.98;0.98;;;8.80;99.90;;;;;;4982348;28;20026;-88
2021/03/13 09:15:08;;;;;;;0.10;0.10;;;8.90;99.90;;;;;;4986839;28;20110;-89
2021/03/13 09:17:35;;;;;;;0.00;0.00;;;9.10;99.90;;;;;;4981153;28;20015;-89
2021/03/13 09:20:10;;;;;;;0.40;0.40;;;9.70;99.90;;;;;;4982134;28;20053;-90
2021/03/13 09:22:46;;;;;;;27.33;0.95;;;10.10;99.90;;;;;;4975999;28;20026;-89
2021/03/13 09:25:35;;;;;;;0.10;0.10;;;10.00;99.90;;;;;;4986344;28;20601;-90
2021/03/13 09:28:01;;;;;;;0.65;0.65;;;9.90;99.90;;;;;;4982164;28;20047;-90
2021/03/13 09:30:27;;;;;;;3.90;2.15;;;9.60;99.90;;;;;;4983994;28;20050;-90
2021/03/13 09:32:53;;;;;;;1.20;1.10;;;9.20;99.90;;;;;;4984594;28;20022;-89
2021/03/13 09:35:29;;;;;;;1.17;1.17;;;9.40;99.90;;;;;;4985787;28;20033;-89
2021/03/13 09:37:56;;;;;;;0.28;0.28;;;9.20;99.90;;;;;;4981957;28;20053;-89
2021/03/13 09:40:27;;;;;;;0.20;0.20;;;9.40;99.90;;;;;;4979871;28;20049;-89
2021/03/13 09:42:55;;;;;;;1.75;1.65;;;9.80;99.90;;;;;;4979714;28;20051;-89
2021/03/13 09:45:23;;;;;;;9.15;2.03;;;9.80;99.90;;;;;;4978975;28;20033;-89
2021/03/13 09:48:03;;;;;;;0.30;0.30;;;10.50;99.90;;;;;;4985333;28;20031;-90
2021/03/13 09:50:36;;;;;;;0.10;0.10;;;9.80;99.90;;;;;;4975451;28;20038;-90
2021/03/13 09:53:16;;;;;;;0.15;0.15;;;9.70;99.90;;;;;;4977145;28;20399;-90
2021/03/13 09:55:49;;;;;;;0.00;0.00;;;13.10;99.90;;;;;;4983243;28;20018;-89
2021/03/13 09:58:19;;;;;;;1.13;1.02;;;14.70;99.90;;;;;;4984495;28;20072;-90
2021/03/13 10:00:45;;;;;;;0.85;0.85;;;16.30;99.90;;;;;;4982053;28;20027;-90
2021/03/13 10:03:14;;;;;;;2.83;1.00;;;13.80;99.90;;;;;;4987812;28;20030;-90
2021/03/13 10:05:43;;;;;;;0.73;0.73;;;12.50;99.90;;;;;;4988400;28;20153;-90
2021/03/13 10:08:18;;;;;;;1.23;1.13;;;13.10;99.90;;;;;;4986016;28;20049;-90
2021/03/13 10:10:51;;;;;;;1.25;0.38;;;11.60;99.90;;;;;;4984404;28;20031;-90
2021/03/13 10:13:18;;;;;;;0.20;0.20;;;10.80;99.90;;;;;;4977792;28;20096;-90
2021/03/13 10:15:45;;;;;;;;;;;9.90;99.90;;;;;;4982408;28;20035;-90
2021/03/13 10:18:14;;;;;;;0.28;0.28;;;9.70;99.90;;;;;;4978503;28;20274;-90
2021/03/13 10:20:45;;;;;;;0.65;0.65;;;9.40;99.90;;;;;;4983690;28;20136;-90
2021/03/13 10:23:13;;;;;;;0.95;0.95;;;9.50;99.90;;;;;;4978898;28;20041;-90
2021/03/13 10:25:42;;;;;;;0.40;0.40;;;9.70;99.90;;;;;;4978685;28;20528;-90
2021/03/13 10:28:13;;;;;;;3.55;1.75;;;9.70;99.90;;;;;;4983241;28;20030;-90
2021/03/13 10:30:42;;;;;;;0.13;0.13;;;9.50;99.90;;;;;;4983267;28;20525;-90
2021/03/13 10:33:09;;;;;;;0.68;0.68;;;9.20;99.90;;;;;;4982972;28;20065;-89
2021/03/13 10:35:35;;;;;;;1.98;0.98;;;9.50;99.90;;;;;;4982130;28;20033;-90
2021/03/13 10:38:08;;;;;;;0.38;0.38;;;10.00;99.90;;;;;;4987893;28;20034;-90
2021/03/13 10:40:49;;;;;;;0.10;0.10;;;10.30;99.90;;;;;;4987131;28;20036;-90
2021/03/13 10:43:31;;;;;;;0.52;0.52;;;10.70;99.90;;;;;;4989737;28;20497;-90
2021/03/13 10:45:56;;;;;;;0.17;0.17;;;11.50;99.90;;;;;;4985238;28;20553;-90
2021/03/13 10:48:24;;;;;;;1.55;1.45;;;14.10;99.90;;;;;;4979214;28;20037;-91
2021/03/13 10:50:50;;;;;;;0.20;0.20;;;13.70;99.90;;;;;;4984837;28;20165;-90
2021/03/13 10:53:35;;;;;;;0.45;0.45;;;15.60;99.90;;;;;;4984795;28;20499;-90
2021/03/13 10:56:03;;;;;;;0.55;0.55;;;14.90;99.90;;;;;;4983597;28;20062;-90
2021/03/13 10:58:33;;;;;;;0.10;0.10;;;12.60;99.90;;;;;;4984409;28;20495;-90
2021/03/13 11:01:01;;;;;;;0.03;0.03;;;11.30;99.90;;;;;;4988839;28;20030;-90
2021/03/13 11:03:28;;;;;;;0.73;0.63;;;10.70;99.90;;;;;;4988854;28;20026;-89
2021/03/13 11:05:58;;;;;;;0.10;0.10;;;10.70;99.90;;;;;;4985782;28;20518;-90
2021/03/13 11:08:30;;;;;;;0.10;0.10;;;10.80;99.90;;;;;;4989399;28;20127;-90
2021/03/13 11:10:57;;;;;;;0.22;0.22;;;10.90;99.90;;;;;;4988465;28;20491;-90
2021/03/13 11:13:24;;;;;;;;;;;11.10;99.90;;;;;;4979023;28;20511;-89
2021/03/13 11:15:50;;;;;;;0.10;0.10;;;11.60;99.90;;;;;;4990290;28;19910;-90
2021/03/13 11:18:17;;;;;;;0.05;0.05;;;11.90;99.90;;;;;;4989609;28;20027;-90
2021/03/13 11:20:44;;;;;;;0.10;0.10;;;11.60;99.90;;;;;;4989600;28;20490;-90
2021/03/13 11:23:10;;;;;;;0.50;0.50;;;10.90;99.90;;;;;;4988476;28;20034;-89
2021/03/13 11:25:36;;;;;;;0.55;0.55;;;10.70;99.90;;;;;;4980307;28;20031;-90
2021/03/13 11:28:03;;;;;;;0.20;0.20;;;10.30;99.90;;;;;;4986711;28;20100;-90
2021/03/13 11:30:29;;;;;;;0.43;0.43;;;10.40;99.90;;;;;;4982731;28;20289;-89
2021/03/13 11:32:55;;;;;;;0.10;0.10;;;9.90;99.90;;;;;;4985886;28;20127;-90
2021/03/13 11:35:21;;;;;;;0.05;0.05;;;9.70;99.90;;;;;;4987232;28;20101;-89
2021/03/13 11:37:48;;;;;;;0.10;0.10;;;9.50;99.90;;;;;;4989163;28;20022;-89
2021/03/13 11:40:15;;;;;;;;;;;9.60;99.90;;;;;;4980841;28;20066;-89
2021/03/13 11:42:42;;;;;;;0.00;0.00;;;9.80;99.90;;;;;;4980477;28;19925;-89
2021/03/13 11:45:10;;;;;;;0.20;0.20;;;9.90;99.90;;;;;;4979948;28;20031;-89
2021/03/13 11:47:37;;;;;;;0.17;0.17;;;9.90;99.90;;;;;;4980039;28;20046;-88
2021/03/13 11:50:05;;;;;;;;;;;9.60;99.90;;;;;;4981033;28;20113;-87
2021/03/13 11:52:31;;;;;;;0.20;0.20;;;9.80;99.90;;;;;;4985233;28;19918;-87
2021/03/13 11:54:56;;;;;;;1.25;1.02;;;10.20;99.90;;;;;;4980787;28;20616;-86
2021/03/13 11:57:22;;;;;;;0.32;0.32;;;10.40;99.90;;;;;;4979668;28;20022;-85
2021/03/13 11:59:49;;;;;;;0.10;0.10;;;10.10;99.90;;;;;;4983558;28;20039;-85
2021/03/13 12:02:16;;;;;;;0.15;0.15;;;9.60;99.90;;;;;;4984196;28;20104;-85
2021/03/13 12:04:43;;;;;;;0.00;0.00;;;9.50;99.90;;;;;;4985142;28;20098;-84
2021/03/13 12:07:10;;;;;;;0.17;0.17;;;9.40;99.90;;;;;;4989205;28;20031;-85
2021/03/13 12:09:36;;;;;;;0.10;0.10;;;9.40;99.90;;;;;;4989391;28;20054;-85
2021/03/13 12:12:06;;;;;;;0.32;0.28;;;9.90;99.90;;;;;;4988095;28;20471;-85
2021/03/13 12:14:33;;;;;;;0.90;0.65;;;10.10;99.90;;;;;;4988376;28;20105;-85
2021/03/13 12:17:00;;;;;;;0.38;0.38;;;10.30;99.90;;;;;;4987595;28;20077;-86
2021/03/13 12:19:26;;;;;;;0.10;0.10;;;10.20;99.90;;;;;;4989132;28;20034;-86
2021/03/13 12:21:52;;;;;;;2.03;0.10;;;10.50;99.90;;;;;;4989048;28;20034;-86
2021/03/13 12:24:18;;;;;;;0.10;0.10;;;10.40;99.90;;;;;;4989046;28;20383;-85
2021/03/13 12:26:44;;;;;;;0.10;0.10;;;10.50;99.90;;;;;;4988274;28;20033;-86
2021/03/13 12:29:13;;;;;;;0.00;0.00;;;10.90;99.90;;;;;;4982387;28;20049;-84
2021/03/13 12:31:43;;;;;;;0.50;0.38;;;10.80;99.90;;;;;;4975121;28;20495;-86
2021/03/13 12:34:09;;;;;;;0.03;0.03;;;11.40;99.90;;;;;;4978952;28;20097;-86
2021/03/13 12:36:35;;;;;;;0.25;0.25;;;11.00;99.90;;;;;;4979475;28;20105;-87
2021/03/13 12:39:01;;;;;;;0.10;0.10;;;11.00;99.90;;;;;;4976637;28;20524;-86
2021/03/13 12:41:26;;;;;;;0.22;0.22;;;11.40;99.90;;;;;;4986213;28;20034;-86
2021/03/13 12:43:52;;;;;;;0.05;0.05;;;11.60;99.90;;;;;;4986307;28;20026;-86
2021/03/13 12:46:19;;;;;;;0.10;0.10;;;11.00;99.90;;;;;;4986704;28;20026;-85
2021/03/13 12:48:48;;;;;;;0.50;0.50;;;10.40;99.90;;;;;;4980497;28;20767;-86
2021/03/13 12:51:15;;;;;;;0.10;0.10;;;10.30;99.90;;;;;;4984480;28;20033;-86
2021/03/13 12:53:43;;;;;;;0.55;0.55;;;10.10;99.90;;;;;;4975319;28;20030;-86
2021/03/13 12:56:09;;;;;;;0.30;0.30;;;9.80;99.90;;;;;;4978495;28;20038;-85
2021/03/13 12:58:36;;;;;;;;;;;9.70;99.90;;;;;;4980596;28;20511;-85
2021/03/13 13:01:03;;;;;;;0.68;0.68;;;9.60;99.90;;;;;;4979682;28;20374;-85
2021/03/13 13:03:28;;;;;;;0.10;0.10;;;9.50;99.90;;;;;;4991646;28;20443;-85
2021/03/13 13:05:54;;;;;;;0.88;0.43;;;9.40;99.90;;;;;;4984238;28;20037;-85
2021/03/13 13:08:20;;;;;;;0.10;0.10;;;9.20;99.90;;;;;;4982721;28;20022;-84
2021/03/13 13:10:48;;;;;;;0.00;0.00;;;9.30;99.90;;;;;;4979813;28;20037;-85
2021/03/13 13:13:21;;;;;;;0.10;0.10;;;9.20;99.90;;;;;;4985728;28;20586;-85
2021/03/13 13:15:49;;;;;;;0.68;0.68;;;9.30;99.90;;;;;;4977339;28;20117;-86
2021/03/13 13:18:16;;;;;;;0.10;0.10;;;9.40;99.90;;;;;;4983477;28;20026;-86